Terminal Aerodrome Forecast
Issued by NWS

Home | Current Version | Previous Version | Text Only | Print | Product List | Glossary On
Versions: 1 2 3 4 5 6 7 8 9 10 11 12 13 14
514
FTUS43 KEAX 142324
TAFMKC
TAF
KMKC 142324Z 1500/1524 VRB04KT P6SM SCT040
     FM150600 VRB04KT P6SM BKN100
     FM151200 31007KT P6SM SCT040 BKN100
     FM151700 29010KT P6SM FEW050=

USA.gov is the U.S. government's official web portal to all federal, state and local government web resources and services.